Terminal Aerodrome Forecast
Issued by NWS Twin Cities, MN

Home | Current Version | Previous Version | Graphics & Text | Print | Product List | Glossary On
Versions: 1 2 3 4 5 6 7 8 9 10 11 12 13 14 15 16 17 18 19 20 21 22 23 24 25 26 27 28 29 30
763
FTUS43 KMPX 171341 AAB
TAFMSP
TAF AMD
KMSP 171341Z 1714/1818 33011KT 6SM -RA SCT008 BKN020 OVC040
     FM171800 31015G22KT P6SM VCSH BKN020 OVC040
     FM172200 31013G20KT P6SM SCT020 BKN040
     FM180200 32007KT P6SM SCT040 SCT150=

USA.gov is the U.S. government's official web portal to all federal, state and local government web resources and services.